Time;durP1;ratioP1;P1;durP2;ratioP2;P2;SDS_P1;SDS_P2;PMS_P1;PMS_P2;Temp;Humidity;BMP_temperature;BMP_pressure;BME280_temperature;BME280_humidity;BME280_pressure;Samples;Min_cycle;Max_cycle;Signal;HPM_P1;HPM_P2
2023/01/24 00:00:42;;;;;;;;;;;;;;;;;;12840713;19;20014;-66
2023/01/24 00:05:08;;;;;;;16.40;8.82;;;;;;;;;;12838875;19;20294;-64
2023/01/24 00:09:25;;;;;;;17.25;10.40;;;;;;;;;;12838015;19;20418;-64
2023/01/24 00:13:43;;;;;;;17.38;8.75;;;;;;;;;;12838996;19;20351;-64
2023/01/24 00:18:01;;;;;;;15.53;8.83;;;;;;;;;;12839036;19;20656;-67
2023/01/24 00:22:18;;;;;;;15.30;8.75;;;;;;;;;;12838495;19;20553;-64
2023/01/24 00:26:36;;;;;;;14.23;9.00;;;;;;;;;;12837680;19;20383;-64
2023/01/24 00:30:54;;;;;;;15.15;8.82;;;;;;;;;;12838162;19;20359;-65
2023/01/24 00:35:12;;;;;;;16.05;8.70;;;;;;;;;;12836980;19;20493;-65
2023/01/24 00:39:29;;;;;;;13.30;8.32;;;;;;;;;;12838069;19;20036;-65
2023/01/24 00:43:47;;;;;;;17.83;8.68;;;;;;;;;;12836911;19;20014;-65
2023/01/24 00:48:08;;;;;;;18.00;7.87;;;;;;;;;;12836558;19;20492;-66
2023/01/24 00:52:26;;;;;;;16.65;8.98;;;;;;;;;;12836558;19;20231;-65
2023/01/24 00:56:44;;;;;;;16.83;8.15;;;;;;;;;;12837194;19;20474;-65
2023/01/24 01:01:02;;;;;;;11.70;7.45;;;;;;;;;;12835425;19;20346;-66
2023/01/24 01:05:20;;;;;;;15.35;8.48;;;;;;;;;;12837724;19;20465;-65
2023/01/24 01:09:38;;;;;;;18.13;8.70;;;;;;;;;;12814070;19;20463;-65
2023/01/24 01:13:56;;;;;;;20.75;10.05;;;;;;;;;;12834753;19;20491;-64
2023/01/24 01:18:14;;;;;;;15.43;9.35;;;;;;;;;;12834931;19;20779;-64
2023/01/24 01:22:31;;;;;;;18.63;9.10;;;;;;;;;;12836008;19;20473;-65
2023/01/24 01:26:49;;;;;;;16.48;9.60;;;;;;;;;;12834958;19;20078;-65
2023/01/24 01:31:07;;;;;;;14.45;7.35;;;;;;;;;;12832917;19;20473;-66
2023/01/24 01:35:25;;;;;;;16.83;9.43;;;;;;;;;;12834546;19;20367;-65
2023/01/24 01:39:42;;;;;;;16.20;8.65;;;;;;;;;;12833593;19;20347;-64
2023/01/24 01:49:04;;;;;;;13.77;8.07;;;;;;;;;;12838298;19;20292;-65
2023/01/24 01:53:24;;;;;;;18.92;8.95;;;;;;;;;;12842826;19;20082;-67
2023/01/24 01:57:45;;;;;;;12.40;7.72;;;;;;;;;;12843259;19;20023;-66
2023/01/24 02:02:05;;;;;;;14.07;7.75;;;;;;;;;;12842557;19;20461;-65
2023/01/24 02:07:03;;;;;;;15.85;9.45;;;;;;;;;;12843824;19;20351;-65
2023/01/24 02:11:39;;;;;;;;;;;;;;;;;;12843782;19;20371;-67
2023/01/24 02:16:03;;;;;;;15.93;8.70;;;;;;;;;;12842550;19;20561;-65
2023/01/24 02:20:47;;;;;;;12.50;8.15;;;;;;;;;;12840295;19;22805;-65
2023/01/24 02:25:10;;;;;;;11.68;7.20;;;;;;;;;;12842278;19;20014;-65
2023/01/24 02:29:27;;;;;;;14.38;8.13;;;;;;;;;;12841532;19;20426;-65
2023/01/24 02:33:45;;;;;;;14.38;8.77;;;;;;;;;;12844310;19;20194;-65
2023/01/24 02:38:06;;;;;;;12.30;7.05;;;;;;;;;;12841673;19;20359;-65
2023/01/24 02:42:30;;;;;;;16.63;8.52;;;;;;;;;;12843437;19;20070;-65
2023/01/24 02:46:48;;;;;;;13.40;8.38;;;;;;;;;;12843095;19;20457;-65
2023/01/24 03:00:18;;;;;;;15.10;8.68;;;;;;;;;;12842260;19;20489;-67
2023/01/24 03:04:35;;;;;;;14.07;6.22;;;;;;;;;;12842838;19;20031;-65
2023/01/24 03:08:53;;;;;;;9.80;5.93;;;;;;;;;;12842246;19;20496;-65
2023/01/24 03:36:19;;;;;;;14.60;7.15;;;;;;;;;;12840522;19;20485;-64
2023/01/24 03:40:37;;;;;;;11.85;6.20;;;;;;;;;;12839438;19;20365;-66
2023/01/24 03:44:54;;;;;;;10.23;5.38;;;;;;;;;;12840720;19;20464;-65
2023/01/24 03:49:12;;;;;;;10.90;6.05;;;;;;;;;;12839653;19;20412;-66
2023/01/24 03:53:31;;;;;;;14.50;7.60;;;;;;;;;;12839790;19;20010;-64
2023/01/24 03:57:48;;;;;;;17.58;8.32;;;;;;;;;;12839836;19;20320;-65
2023/01/24 04:02:06;;;;;;;11.43;6.53;;;;;;;;;;12839058;19;20364;-66
2023/01/24 04:06:23;;;;;;;12.02;6.53;;;;;;;;;;12839502;19;20578;-64
2023/01/24 04:10:41;;;;;;;17.80;7.80;;;;;;;;;;12837602;19;20487;-64
2023/01/24 04:14:58;;;;;;;11.10;6.10;;;;;;;;;;12838075;19;20367;-65
2023/01/24 04:19:16;;;;;;;16.65;8.85;;;;;;;;;;12838740;19;20749;-65
2023/01/24 04:23:34;;;;;;;11.60;6.50;;;;;;;;;;12838356;19;20377;-64
2023/01/24 04:27:51;;;;;;;8.75;4.97;;;;;;;;;;12838784;19;20487;-65
2023/01/24 04:32:11;;;;;;;9.90;5.63;;;;;;;;;;12834683;19;20031;-66
2023/01/24 04:36:28;;;;;;;8.45;5.28;;;;;;;;;;12837876;19;20416;-65
2023/01/24 04:40:46;;;;;;;12.80;7.87;;;;;;;;;;12837684;19;20006;-65
2023/01/24 04:45:05;;;;;;;17.08;11.98;;;;;;;;;;12838238;19;20780;-66
2023/01/24 04:49:22;;;;;;;15.10;8.98;;;;;;;;;;12839416;19;20371;-66
2023/01/24 04:53:41;;;;;;;8.55;5.22;;;;;;;;;;12836489;19;20078;-66
2023/01/24 04:57:58;;;;;;;7.43;4.63;;;;;;;;;;12835732;19;20002;-66
2023/01/24 05:02:16;;;;;;;9.13;5.28;;;;;;;;;;12836487;19;20462;-66
2023/01/24 05:06:34;;;;;;;7.78;4.13;;;;;;;;;;12836545;19;20320;-66
2023/01/24 05:10:52;;;;;;;8.70;5.28;;;;;;;;;;12835502;19;20433;-65
2023/01/24 05:15:10;;;;;;;9.38;5.07;;;;;;;;;;12834823;19;20362;-65
2023/01/24 05:19:27;;;;;;;8.45;3.97;;;;;;;;;;12834574;19;20461;-65
2023/01/24 05:23:51;;;;;;;6.72;3.90;;;;;;;;;;12840684;19;20375;-65
2023/01/24 05:28:09;;;;;;;7.03;4.15;;;;;;;;;;12846841;19;20014;-65
2023/01/24 05:32:27;;;;;;;7.05;3.78;;;;;;;;;;12846618;19;20310;-66
2023/01/24 05:36:45;;;;;;;6.25;3.50;;;;;;;;;;12847659;19;20434;-65
2023/01/24 05:41:07;;;;;;;5.97;4.05;;;;;;;;;;12847219;19;20081;-67
2023/01/24 05:45:25;;;;;;;8.55;4.50;;;;;;;;;;12846212;19;20482;-65
2023/01/24 05:49:43;;;;;;;10.45;5.45;;;;;;;;;;12846783;19;20452;-66
2023/01/24 05:54:00;;;;;;;11.02;6.10;;;;;;;;;;12847055;19;20124;-65
2023/01/24 05:58:18;;;;;;;10.82;6.68;;;;;;;;;;12845673;19;20361;-66
2023/01/24 06:02:35;;;;;;;9.70;5.88;;;;;;;;;;12846362;19;20040;-65
2023/01/24 06:06:53;;;;;;;8.15;5.28;;;;;;;;;;12847991;19;20300;-65
2023/01/24 06:11:15;;;;;;;9.40;5.47;;;;;;;;;;12843515;19;20044;-66
2023/01/24 06:15:33;;;;;;;9.48;5.28;;;;;;;;;;12845864;19;20368;-66
2023/01/24 06:19:51;;;;;;;8.50;5.03;;;;;;;;;;12845513;19;20039;-65
2023/01/24 06:24:25;;;;;;;14.30;6.50;;;;;;;;;;12844067;19;20507;-65
2023/01/24 06:28:43;;;;;;;12.60;6.40;;;;;;;;;;12842992;19;20508;-65
2023/01/24 06:33:10;;;;;;;10.30;6.22;;;;;;;;;;12844183;19;20010;-65
2023/01/24 06:37:46;;;;;;;17.02;8.65;;;;;;;;;;12843978;19;20366;-65
2023/01/24 06:42:04;;;;;;;11.25;5.97;;;;;;;;;;12841668;19;20018;-66
2023/01/24 06:46:22;;;;;;;10.15;6.57;;;;;;;;;;12843585;19;20437;-66
2023/01/24 06:50:40;;;;;;;12.80;6.95;;;;;;;;;;12841564;19;20640;-65
2023/01/24 06:54:57;;;;;;;14.02;6.80;;;;;;;;;;12844011;19;20493;-65
2023/01/24 06:59:15;;;;;;;17.77;8.02;;;;;;;;;;12842386;19;20050;-66
2023/01/24 07:03:32;;;;;;;9.80;5.93;;;;;;;;;;12843745;19;20572;-65
2023/01/24 07:07:50;;;;;;;12.60;6.77;;;;;;;;;;12841827;19;20066;-65
2023/01/24 07:12:08;;;;;;;11.32;6.40;;;;;;;;;;12842365;19;20010;-67
2023/01/24 07:16:25;;;;;;;10.30;6.22;;;;;;;;;;12842250;19;20446;-65
2023/01/24 07:20:44;;;;;;;11.65;6.70;;;;;;;;;;12842466;19;20442;-65
2023/01/24 07:25:02;;;;;;;9.88;6.30;;;;;;;;;;12841765;19;20047;-66
2023/01/24 07:29:21;;;;;;;8.75;6.05;;;;;;;;;;12842627;19;20394;-66
2023/01/24 07:33:38;;;;;;;9.60;5.53;;;;;;;;;;12842062;19;20730;-65
2023/01/24 07:37:56;;;;;;;12.23;6.40;;;;;;;;;;12842239;19;20010;-66
2023/01/24 07:42:13;;;;;;;10.65;5.90;;;;;;;;;;12840111;19;20034;-66
2023/01/24 07:46:35;;;;;;;12.85;7.53;;;;;;;;;;12840223;19;20010;-66
2023/01/24 07:50:53;;;;;;;10.38;6.60;;;;;;;;;;12838352;19;20403;-65
2023/01/24 07:55:10;;;;;;;13.45;7.55;;;;;;;;;;12839157;19;20385;-65
2023/01/24 07:59:28;;;;;;;23.67;15.13;;;;;;;;;;12839323;19;20018;-67
2023/01/24 08:03:57;;;;;;;13.77;7.47;;;;;;;;;;12838938;19;20307;-65
2023/01/24 08:08:14;;;;;;;14.70;7.80;;;;;;;;;;12839053;19;20370;-66
2023/01/24 08:12:32;;;;;;;18.38;7.22;;;;;;;;;;12838579;19;20485;-66
2023/01/24 08:16:49;;;;;;;13.65;6.93;;;;;;;;;;12837052;19;20344;-65
2023/01/24 08:21:07;;;;;;;27.85;10.05;;;;;;;;;;12836510;19;20011;-66
2023/01/24 08:25:26;;;;;;;10.60;6.78;;;;;;;;;;12839652;19;20378;-65
2023/01/24 08:29:44;;;;;;;16.75;8.50;;;;;;;;;;12837136;19;20742;-65
2023/01/24 08:34:02;;;;;;;13.25;7.93;;;;;;;;;;12836716;19;20468;-67
2023/01/24 08:38:19;;;;;;;16.55;8.05;;;;;;;;;;12838592;19;20422;-65
2023/01/24 08:42:37;;;;;;;14.43;8.20;;;;;;;;;;12838645;19;20380;-66
2023/01/24 08:46:55;;;;;;;14.30;8.93;;;;;;;;;;12837884;19;20698;-66
2023/01/24 08:51:12;;;;;;;20.05;9.75;;;;;;;;;;12835907;19;20465;-65
2023/01/24 08:55:30;;;;;;;16.63;8.90;;;;;;;;;;12836890;19;20010;-65
2023/01/24 08:59:47;;;;;;;16.02;8.93;;;;;;;;;;12844837;19;20361;-65
2023/01/24 09:04:05;;;;;;;12.20;7.05;;;;;;;;;;12848923;19;20438;-65
2023/01/24 09:08:23;;;;;;;17.35;9.65;;;;;;;;;;12849478;19;20355;-66
2023/01/24 09:13:56;;;;;;;21.15;10.50;;;;;;;;;;12847688;19;20437;-65
2023/01/24 09:18:14;;;;;;;23.52;11.40;;;;;;;;;;12847736;19;20657;-66
2023/01/24 09:22:31;;;;;;;19.00;11.50;;;;;;;;;;12848840;19;20503;-66
2023/01/24 09:26:49;;;;;;;14.75;8.18;;;;;;;;;;12848684;19;20347;-65
2023/01/24 09:31:08;;;;;;;19.58;11.30;;;;;;;;;;12846290;19;20357;-66
2023/01/24 09:35:26;;;;;;;22.50;11.02;;;;;;;;;;12849044;19;20402;-66
2023/01/24 09:39:43;;;;;;;15.13;8.93;;;;;;;;;;12845109;19;20415;-66
2023/01/24 09:44:40;;;;;;;22.48;13.63;;;;;;;;;;12846621;19;20462;-65
2023/01/24 09:49:21;;;;;;;21.95;11.93;;;;;;;;;;12846745;19;20629;-66
2023/01/24 09:53:47;;;;;;;20.17;12.32;;;;;;;;;;12844337;19;20442;-65
2023/01/24 09:58:31;;;;;;;18.35;10.75;;;;;;;;;;12843138;19;20011;-67
2023/01/24 10:02:49;;;;;;;37.38;20.25;;;;;;;;;;12845726;19;20477;-66
2023/01/24 10:07:56;;;;;;;37.03;21.58;;;;;;;;;;12845106;19;20422;-66
2023/01/24 10:12:46;;;;;;;25.38;16.02;;;;;;;;;;12842583;19;20015;-65
2023/01/24 10:17:25;;;;;;;20.05;11.98;;;;;;;;;;12843636;19;20466;-66
2023/01/24 10:22:35;;;;;;;10.65;6.10;;;;;;;;;;12844219;19;20359;-66
2023/01/24 12:43:46;;;;;;;15.52;8.82;;;;;;;;;;12791048;19;20445;-70
2023/01/24 12:48:24;;;;;;;8.20;5.40;;;;;;;;;;12838176;19;20431;-71
2023/01/24 12:52:49;;;;;;;8.77;5.85;;;;;;;;;;12839008;19;20011;-71
2023/01/24 12:57:39;;;;;;;5.80;3.45;;;;;;;;;;12837891;19;20439;-71
2023/01/24 13:02:44;;;;;;;5.03;3.38;;;;;;;;;;12837629;19;20018;-72
2023/01/24 13:07:26;;;;;;;18.08;8.18;;;;;;;;;;12836181;19;20318;-71
2023/01/24 13:11:49;;;;;;;9.68;5.93;;;;;;;;;;12836425;19;20476;-71
2023/01/24 13:16:58;;;;;;;14.32;7.38;;;;;;;;;;12828203;19;20515;-70
2023/01/24 13:21:27;;;;;;;23.52;10.80;;;;;;;;;;12831782;19;20294;-71
2023/01/24 13:26:21;;;;;;;10.32;5.93;;;;;;;;;;12837938;19;20468;-71
2023/01/24 13:31:20;;;;;;;24.48;13.70;;;;;;;;;;12837719;19;20433;-71
2023/01/24 13:35:48;;;;;;;14.65;8.07;;;;;;;;;;12836450;19;20339;-71
2023/01/24 13:40:15;;;;;;;11.30;7.03;;;;;;;;;;12836853;19;20380;-71
2023/01/24 13:44:35;;;;;;;24.08;13.30;;;;;;;;;;12838192;19;20309;-71
2023/01/24 13:48:55;;;;;;;26.42;14.13;;;;;;;;;;12848478;19;20014;-70
2023/01/24 13:54:03;;;;;;;34.15;18.05;;;;;;;;;;12845696;19;20095;-71
2023/01/24 13:58:24;;;;;;;29.45;15.60;;;;;;;;;;12847938;19;20489;-72
2023/01/24 14:02:48;;;;;;;21.23;11.13;;;;;;;;;;12847383;19;20476;-72
2023/01/24 14:07:27;;;;;;;17.48;9.35;;;;;;;;;;12847361;19;20366;-72
2023/01/24 14:12:06;;;;;;;19.73;11.57;;;;;;;;;;12846578;19;20459;-72
2023/01/24 14:16:24;;;;;;;16.95;8.95;;;;;;;;;;12847986;19;20365;-72
2023/01/24 14:20:45;;;;;;;42.63;18.33;;;;;;;;;;12847734;19;20396;-70
2023/01/24 14:25:25;;;;;;;20.08;10.80;;;;;;;;;;12846767;19;20481;-72
2023/01/24 14:29:49;;;;;;;34.60;15.15;;;;;;;;;;12844597;19;20460;-71
2023/01/24 14:34:26;;;;;;;30.60;13.35;;;;;;;;;;12844578;19;20429;-72
2023/01/24 14:38:44;;;;;;;27.17;11.13;;;;;;;;;;12845294;19;20351;-71
2023/01/24 14:43:05;;;;;;;14.68;9.43;;;;;;;;;;12845532;19;20362;-71
2023/01/24 14:47:28;;;;;;;14.60;8.75;;;;;;;;;;12843411;19;20366;-72
2023/01/24 14:51:47;;;;;;;16.00;8.30;;;;;;;;;;12843343;19;20433;-71
2023/01/24 14:56:12;;;;;;;17.23;9.33;;;;;;;;;;12841885;19;20429;-71
2023/01/24 15:00:29;;;;;;;11.93;6.68;;;;;;;;;;12838250;19;20579;-71
2023/01/24 15:04:47;;;;;;;17.73;9.07;;;;;;;;;;12843653;19;20490;-71
2023/01/24 15:09:04;;;;;;;9.13;4.73;;;;;;;;;;12841846;19;20427;-71
2023/01/24 15:13:36;;;;;;;20.67;10.43;;;;;;;;;;12843561;19;20456;-72
2023/01/24 15:18:00;;;;;;;15.60;8.68;;;;;;;;;;12843538;19;20401;-72
2023/01/24 15:22:23;;;;;;;5.75;4.25;;;;;;;;;;12843817;19;20500;-71
2023/01/24 15:26:42;;;;;;;6.57;3.45;;;;;;;;;;12841571;19;20383;-71
2023/01/24 15:31:01;;;;;;;7.60;4.55;;;;;;;;;;12841003;19;20351;-72
2023/01/24 15:35:25;;;;;;;6.38;3.92;;;;;;;;;;12841983;19;20366;-71
2023/01/24 15:39:43;;;;;;;4.35;3.35;;;;;;;;;;12841190;19;20375;-72
2023/01/24 15:44:07;;;;;;;;;;;;;;;;;;12841329;19;20449;-71
2023/01/24 15:48:25;;;;;;;6.15;4.30;;;;;;;;;;12843049;19;20329;-72
2023/01/24 15:52:42;;;;;;;8.98;5.60;;;;;;;;;;12841885;19;20432;-71
2023/01/24 15:57:20;;;;;;;5.90;4.05;;;;;;;;;;12839439;19;20015;-71
2023/01/24 16:01:37;;;;;;;10.57;5.53;;;;;;;;;;12839668;19;20346;-72
2023/01/24 16:05:55;;;;;;;7.68;5.20;;;;;;;;;;12841148;19;20471;-71
2023/01/24 16:10:17;;;;;;;8.65;6.40;;;;;;;;;;12840431;19;20445;-72
2023/01/24 16:14:35;;;;;;;9.38;5.68;;;;;;;;;;12838441;19;20032;-71
2023/01/24 16:18:53;;;;;;;8.25;6.63;;;;;;;;;;12839696;19;20371;-70
2023/01/24 16:23:11;;;;;;;6.78;4.35;;;;;;;;;;12839625;19;20436;-71
2023/01/24 16:27:31;;;;;;;6.45;4.28;;;;;;;;;;12840210;19;20380;-70
2023/01/24 16:31:49;;;;;;;5.75;4.40;;;;;;;;;;12840382;19;20591;-70
2023/01/24 16:36:11;;;;;;;5.20;3.70;;;;;;;;;;12837538;19;20456;-71
2023/01/24 16:40:29;;;;;;;7.00;4.60;;;;;;;;;;12839058;19;20354;-71
2023/01/24 16:44:56;;;;;;;6.43;3.67;;;;;;;;;;12838737;19;20010;-72
2023/01/24 16:49:14;;;;;;;6.07;3.53;;;;;;;;;;12837033;19;20333;-72
2023/01/24 16:53:32;;;;;;;7.28;4.35;;;;;;;;;;12836344;19;20460;-71
2023/01/24 16:57:50;;;;;;;5.47;3.25;;;;;;;;;;12838936;19;20365;-73
2023/01/24 17:02:10;;;;;;;5.63;3.33;;;;;;;;;;12837639;19;20015;-72
2023/01/24 17:06:27;;;;;;;4.15;2.80;;;;;;;;;;12836702;19;20030;-70
2023/01/24 17:10:45;;;;;;;7.75;3.58;;;;;;;;;;12835466;19;20362;-71
2023/01/24 17:15:03;;;;;;;170.73;57.70;;;;;;;;;;12837085;19;20358;-72
2023/01/24 17:19:21;;;;;;;;;;;;;;;;;;12842420;19;20465;-71
2023/01/24 17:23:39;;;;;;;38.25;19.40;;;;;;;;;;12850484;19;20325;-71
2023/01/24 17:27:57;;;;;;;55.75;28.95;;;;;;;;;;12850156;19;20359;-72
2023/01/24 17:32:14;;;;;;;15.05;9.90;;;;;;;;;;12846100;19;20301;-71
2023/01/24 17:36:31;;;;;;;9.05;5.90;;;;;;;;;;12849866;19;20488;-72
2023/01/24 17:40:52;;;;;;;27.17;15.90;;;;;;;;;;12849432;19;20358;-71
2023/01/24 17:45:10;;;;;;;25.80;15.73;;;;;;;;;;12847216;19;20435;-71
2023/01/24 17:49:27;;;;;;;39.25;20.98;;;;;;;;;;12849316;19;20673;-72
2023/01/24 17:53:46;;;;;;;27.77;15.73;;;;;;;;;;12849030;19;20016;-71
2023/01/24 17:58:03;;;;;;;29.70;17.25;;;;;;;;;;12845571;19;20319;-72
2023/01/24 18:02:21;;;;;;;23.42;14.27;;;;;;;;;;12846741;19;20479;-71
2023/01/24 18:06:39;;;;;;;27.48;15.00;;;;;;;;;;12848141;19;20467;-71
2023/01/24 18:10:57;;;;;;;14.45;9.05;;;;;;;;;;12847801;19;20349;-72
2023/01/24 18:15:14;;;;;;;9.35;4.88;;;;;;;;;;12844490;19;20472;-72
2023/01/24 18:19:32;;;;;;;11.48;7.72;;;;;;;;;;12846900;19;20033;-72
2023/01/24 18:23:56;;;;;;;12.77;9.00;;;;;;;;;;12845725;19;20479;-71
2023/01/24 18:28:14;;;;;;;10.55;7.57;;;;;;;;;;12843620;19;20475;-72
2023/01/24 18:32:31;;;;;;;6.73;5.10;;;;;;;;;;12843825;19;20500;-73
2023/01/24 18:36:49;;;;;;;6.78;5.40;;;;;;;;;;12846691;19;20079;-72
2023/01/24 18:41:07;;;;;;;6.93;4.80;;;;;;;;;;12842835;19;20460;-72
2023/01/24 18:45:24;;;;;;;7.03;4.05;;;;;;;;;;12842951;19;20740;-73
2023/01/24 18:49:43;;;;;;;10.07;3.92;;;;;;;;;;12845756;19;20350;-72
2023/01/24 18:54:05;;;;;;;6.63;4.93;;;;;;;;;;12844487;19;20357;-72
2023/01/24 18:58:23;;;;;;;7.25;3.92;;;;;;;;;;12844444;19;20352;-72
2023/01/24 19:02:44;;;;;;;6.07;3.90;;;;;;;;;;12844999;19;20486;-72
2023/01/24 19:07:03;;;;;;;5.65;3.83;;;;;;;;;;12842134;19;20023;-73
2023/01/24 19:11:22;;;;;;;10.35;5.20;;;;;;;;;;12842094;19;20452;-72
2023/01/24 19:15:39;;;;;;;7.50;5.03;;;;;;;;;;12840617;19;20297;-72
2023/01/24 19:19:56;;;;;;;7.55;4.25;;;;;;;;;;12844856;19;20366;-73
2023/01/24 19:24:14;;;;;;;7.33;4.20;;;;;;;;;;12843361;19;20429;-73
2023/01/24 19:28:32;;;;;;;9.15;4.95;;;;;;;;;;12842664;19;20753;-73
2023/01/24 19:32:50;;;;;;;6.75;4.07;;;;;;;;;;12842429;19;20108;-72
2023/01/24 19:37:08;;;;;;;12.73;6.13;;;;;;;;;;12842202;19;20352;-73
2023/01/24 19:41:26;;;;;;;;;;;;;;;;;;12839794;19;20468;-72
2023/01/24 19:45:44;;;;;;;;;;;;;;;;;;12840677;19;20195;-73
2023/01/24 19:50:02;;;;;;;7.20;3.90;;;;;;;;;;12842876;19;19922;-71
2023/01/24 19:54:19;;;;;;;9.20;4.28;;;;;;;;;;12841126;19;20386;-72
2023/01/24 19:58:37;;;;;;;8.60;4.70;;;;;;;;;;12841188;19;20486;-72
2023/01/24 20:02:55;;;;;;;7.10;4.18;;;;;;;;;;12841718;19;20493;-72
2023/01/24 20:07:12;;;;;;;5.65;3.42;;;;;;;;;;12840282;19;20500;-71
2023/01/24 20:11:30;;;;;;;5.82;3.50;;;;;;;;;;12840829;19;20517;-73
2023/01/24 20:15:48;;;;;;;7.03;4.22;;;;;;;;;;12837920;19;20451;-73
2023/01/24 20:20:06;;;;;;;6.90;3.08;;;;;;;;;;12839082;19;20480;-73
2023/01/24 20:24:25;;;;;;;7.85;4.20;;;;;;;;;;12839391;19;20014;-72
2023/01/24 20:28:42;;;;;;;10.07;3.55;;;;;;;;;;12838050;19;20014;-71
2023/01/24 20:33:00;;;;;;;7.50;3.80;;;;;;;;;;12838974;19;20497;-73
2023/01/24 20:37:18;;;;;;;4.95;2.85;;;;;;;;;;12839163;19;20339;-72
2023/01/24 20:41:38;;;;;;;5.15;3.55;;;;;;;;;;12837088;19;20353;-72
2023/01/24 20:46:05;;;;;;;5.85;3.60;;;;;;;;;;12838684;19;20115;-72
2023/01/24 20:50:23;;;;;;;4.22;2.45;;;;;;;;;;12838997;19;20465;-72
2023/01/24 20:54:41;;;;;;;;;;;;;;;;;;12854828;19;20578;-72
2023/01/24 20:59:03;;;;;;;3.07;2.00;;;;;;;;;;12862935;19;20338;-72
2023/01/24 21:03:23;;;;;;;5.15;2.20;;;;;;;;;;12862691;19;20367;-71
2023/01/24 21:07:41;;;;;;;85.43;30.35;;;;;;;;;;12862760;19;20460;-71
2023/01/24 21:11:59;;;;;;;138.18;53.13;;;;;;;;;;12862726;19;20370;-73
2023/01/24 21:16:16;;;;;;;66.57;29.70;;;;;;;;;;12861540;19;20498;-73
2023/01/24 21:20:34;;;;;;;40.40;18.45;;;;;;;;;;12860651;19;20452;-72
2023/01/24 21:24:51;;;;;;;64.00;32.60;;;;;;;;;;12859715;19;20317;-71
2023/01/24 21:29:10;;;;;;;24.08;11.95;;;;;;;;;;12861039;19;20496;-73
2023/01/24 21:33:28;;;;;;;10.85;6.82;;;;;;;;;;12860736;19;20333;-71
2023/01/24 21:37:45;;;;;;;9.95;6.32;;;;;;;;;;12864728;19;20321;-71
2023/01/24 21:42:03;;;;;;;6.57;4.07;;;;;;;;;;12858830;19;20508;-71
2023/01/24 21:46:21;;;;;;;8.80;4.95;;;;;;;;;;12858575;19;20390;-71
2023/01/24 21:50:38;;;;;;;13.48;8.73;;;;;;;;;;12861649;19;20467;-72
2023/01/24 21:54:56;;;;;;;20.52;15.07;;;;;;;;;;12860738;19;20382;-72
2023/01/24 21:59:14;;;;;;;15.15;12.30;;;;;;;;;;12859057;19;20158;-73
2023/01/24 22:03:31;;;;;;;11.20;7.35;;;;;;;;;;12860532;19;20510;-71
2023/01/24 22:07:49;;;;;;;14.50;11.13;;;;;;;;;;12844429;19;20472;-72
2023/01/24 22:12:07;;;;;;;10.50;7.75;;;;;;;;;;12846726;19;20463;-72
2023/01/24 22:16:25;;;;;;;8.80;6.18;;;;;;;;;;12846014;19;20025;-71
2023/01/24 22:20:43;;;;;;;8.82;4.60;;;;;;;;;;12847222;19;20452;-71
2023/01/24 22:25:25;;;;;;;11.38;5.63;;;;;;;;;;12845772;19;20373;-72
2023/01/24 22:29:45;;;;;;;10.20;5.22;;;;;;;;;;12844934;19;20333;-72
2023/01/24 22:34:04;;;;;;;6.18;4.38;;;;;;;;;;12843302;19;20366;-71
2023/01/24 22:38:25;;;;;;;7.28;5.28;;;;;;;;;;12844324;19;20483;-71
2023/01/24 22:42:43;;;;;;;7.38;4.93;;;;;;;;;;12844404;19;20504;-72
2023/01/24 22:47:01;;;;;;;7.80;4.53;;;;;;;;;;12844908;19;20475;-73
2023/01/24 22:51:18;;;;;;;5.35;3.45;;;;;;;;;;12844968;19;20501;-72
2023/01/24 22:55:37;;;;;;;;;;;;;;;;;;12844727;19;20371;-71
2023/01/24 22:59:55;;;;;;;5.78;3.67;;;;;;;;;;12845112;19;20346;-72
2023/01/24 23:04:13;;;;;;;8.40;4.43;;;;;;;;;;12843788;19;20304;-72
2023/01/24 23:08:30;;;;;;;9.45;5.35;;;;;;;;;;12846790;19;20027;-73
2023/01/24 23:17:24;;;;;;;5.00;3.22;;;;;;;;;;12840598;19;20027;-73
2023/01/24 23:21:41;;;;;;;6.50;3.35;;;;;;;;;;12843745;19;20468;-71
2023/01/24 23:25:59;;;;;;;8.20;3.42;;;;;;;;;;12843653;19;20505;-72
2023/01/24 23:30:31;;;;;;;4.73;2.67;;;;;;;;;;12842651;19;20389;-72
2023/01/24 23:34:56;;;;;;;3.53;2.53;;;;;;;;;;12841521;19;21099;-72
2023/01/24 23:39:13;;;;;;;4.47;3.00;;;;;;;;;;12840250;19;20433;-72
2023/01/24 23:43:31;;;;;;;7.65;4.50;;;;;;;;;;12840281;19;20450;-71
2023/01/24 23:47:48;;;;;;;9.65;5.35;;;;;;;;;;12842998;19;20361;-72
2023/01/24 23:52:06;;;;;;;12.05;8.32;;;;;;;;;;12841017;19;20090;-71
2023/01/24 23:56:24;;;;;;;7.57;5.72;;;;;;;;;;12839050;19;20400;-71
